Affton, Missouri
Current Conditions -  °F | °C
As of 12:53 PM on Tuesday 27 Jan 2015 (Local Time) from KCPS Reporting Station
Broken Clouds Broken Clouds  
Wind Chill: 37°   Ceiling: 2700
Heat Index: 44°   Visibility: 10mi
Dew Point: 32°   Wind: 14mph
Humidity: 63%   Direction: 360°N
Pressure: 30.15"   Gusts: NA
Location:  38.55°N, 90.33°W
Report Text: KCPS 271853Z 36012KT 10SM BKN027 07/00 A3015 RMK AO2 SLP213 T00670000
Loading
Personal Weather Stations






























Interactive Weather Map New forecast layout! Learn more

10-Day Weather Forecast

Advertisements
Track Severe Weather on mobile